Aeroporto :
LOGIN :

Iscrizione | Disclaimer

   EN    FR    IT 

 










Sommario :    VFR   VFR Marginale   IFR   IFR Intensivo   IFR Molto Intensivo
Visibilità : 
Base nubi : 
>= 8 km
>= 3000ft
5 / 8 km
1000 / 3000 ft
1500m / 5 km
500 / 1000 ft
800 / 1500m
200 / 500 ft
< 800m
< 200 ft
Simboli :   Temporali  Nebbia  Neve Forte  Precipitazioni Forti  Vento > 20 kt
SIGMETs :   Varie  Temporali  Ghiacco  Turbolenza  Onda orograficha  Ceneri Vulcaniche






- Altitudine del aeroporto : 20 ft


EBFN - Koksijde

ULTIMO METAR :
  • 121325Z 23013KT 9999 FEW032 08/03 Q0998 BLU BLU TEMPO WHT

METARs OBSOLETI :
  • 121255Z 23013KT 9999 FEW032 09/03 Q0999 BLU BLU TEMPO WHT
  • 121225Z 24014KT 9999 FEW030 09/03 Q0999 BLU BLU TEMPO WHT
  • 121155Z 24013KT 9999 SCT030 SCT050 08/02 Q0999 BLU BLU TEMPO WHT
  • 121125Z 23015KT 9999 SCT027 SCT050 08/03 Q0999 BLU BLU TEMPO WHT
  • 121055Z 21013KT 9999 SCT027 SCT050 08/05 Q0999 BLU BLU TEMPO WHT

TAF TAF EBFN
Valido dal 12 a 13 ore il 12 a 22 ore UTC


121157Z 1213/1222 22013KT 9999 SCT025 SCT040
TEMPO 1216/1222 6000 RA SCT010 BKN020
TEMPO 1216/1222 3500 SHRA BKN016TCU
BECMG 1220/1222 27015KT



MetMap, La meteo Aeronautica in un colpo d'occhio ! - Copyright ORBIFLY Dicembre 2007 - Disclaimer

ORBIFLY MET'MAP TEAM :

Programmazione e sviluppo : Alexandra Zaïnal
Concezione e sviluppo : Baudouin d'Aumeries
Co-Programmazione e sviluppo : Marc-Olivier Méhu
Supporto tecnico e logistico : Manuel Goepfert
Aiuto per la traduzione : Arnaldo La Scala

Contatto : metmap@orbifly.com




FONTI E CREDITI :

   NOAA